createdAt,value
2024-04-21T00:01:39.238Z,92.96
2024-04-21T00:04:10.263Z,93.08
2024-04-21T00:06:37.451Z,93.22
2024-04-21T00:09:07.569Z,93.02
2024-04-21T00:11:34.774Z,94.24
2024-04-21T00:14:05.150Z,94.48
2024-04-21T00:16:32.313Z,95.63
2024-04-21T00:19:05.455Z,96.39
2024-04-21T00:21:34.528Z,95.61
2024-04-21T00:24:04.735Z,95.11
2024-04-21T00:26:31.845Z,94.86
2024-04-21T00:29:02.182Z,95.48
2024-04-21T00:31:31.601Z,95.14
2024-04-21T00:34:01.918Z,95.59
2024-04-21T00:36:31.829Z,94.66
2024-04-21T00:39:01.963Z,95.29
2024-04-21T00:41:29.112Z,95.76
2024-04-21T00:43:59.292Z,94.88
2024-04-21T00:46:28.899Z,94.59
2024-04-21T00:48:59.098Z,95.45
2024-04-21T00:51:26.845Z,94.43
2024-04-21T00:53:59.889Z,94.73
2024-04-21T00:56:27.010Z,94.49
2024-04-21T00:58:58.613Z,94.76
2024-04-21T01:01:25.848Z,94.37
2024-04-21T01:03:57.507Z,95.08
2024-04-21T01:06:24.854Z,94.82
2024-04-21T01:08:55.242Z,94.21
2024-04-21T01:11:25.125Z,93.87
2024-04-21T01:13:55.295Z,94.24
2024-04-21T01:16:22.525Z,94.51
2024-04-21T01:18:52.664Z,93.89
2024-04-21T01:21:19.846Z,93.68
2024-04-21T01:23:52.677Z,94.00
2024-04-21T01:26:19.804Z,94.72
2024-04-21T01:28:49.962Z,94.32
2024-04-21T01:31:17.330Z,93.97
2024-04-21T01:33:47.503Z,94.34
2024-04-21T01:36:14.582Z,94.55
2024-04-21T01:38:44.758Z,94.23
2024-04-21T01:41:14.478Z,94.35
2024-04-21T01:43:44.610Z,94.31
2024-04-21T01:46:11.705Z,94.04
2024-04-21T01:48:41.842Z,95.21
2024-04-21T01:51:08.915Z,95.81
2024-04-21T01:53:39.546Z,95.58
2024-04-21T01:56:06.928Z,96.24
2024-04-21T01:58:39.720Z,96.86
2024-04-21T02:01:06.915Z,96.54
2024-04-21T02:03:37.256Z,97.05
2024-04-21T02:06:04.722Z,96.51
2024-04-21T02:08:34.896Z,96.01
2024-04-21T02:11:02.262Z,95.68
2024-04-21T02:13:32.434Z,96.13
2024-04-21T02:16:02.346Z,96.65
2024-04-21T02:18:32.488Z,95.95
2024-04-21T02:20:59.605Z,96.21
2024-04-21T02:23:30.180Z,96.27
2024-04-21T02:25:57.581Z,97.53
2024-04-21T02:28:27.789Z,97.12
2024-04-21T02:31:29.243Z,97.60
2024-04-21T02:34:02.171Z,96.84
2024-04-21T02:36:29.369Z,97.73
2024-04-21T02:38:59.586Z,98.08
2024-04-21T02:41:26.841Z,98.61
2024-04-21T02:43:56.902Z,99.39
2024-04-21T02:46:24.313Z,99.36
2024-04-21T02:48:54.526Z,99.01
2024-04-21T02:51:24.287Z,99.92
2024-04-21T02:53:54.413Z,99.37
2024-04-21T02:56:21.533Z,100.00
2024-04-21T02:58:51.692Z,100.00
2024-04-21T03:01:18.909Z,100.00
2024-04-21T03:03:50.346Z,100.00
2024-04-21T03:06:17.495Z,100.00
2024-04-21T03:08:50.668Z,100.00
2024-04-21T03:11:17.812Z,100.00
2024-04-21T03:13:49.598Z,100.00
2024-04-21T03:16:17.127Z,100.00
2024-04-21T03:18:48.612Z,100.00
2024-04-21T03:21:15.836Z,100.00
2024-04-21T03:23:46.303Z,100.00
2024-04-21T03:26:16.016Z,100.00
2024-04-21T03:28:46.125Z,100.00
2024-04-21T03:31:13.230Z,100.00
2024-04-21T03:33:43.450Z,100.00
2024-04-21T03:36:11.999Z,100.00
2024-04-21T03:38:42.666Z,100.00
2024-04-21T03:41:12.544Z,100.00
2024-04-21T03:43:48.253Z,100.00
2024-04-21T03:46:19.914Z,100.00
2024-04-21T03:48:49.080Z,100.00
2024-04-21T03:51:18.795Z,100.00
2024-04-21T03:53:46.334Z,100.00
2024-04-21T03:56:16.649Z,100.00
2024-04-21T03:58:46.787Z,100.00
2024-04-21T04:01:16.591Z,100.00
2024-04-21T04:03:44.489Z,100.00
2024-04-21T04:06:14.314Z,100.00
2024-04-21T04:08:41.992Z,100.00
2024-04-21T04:11:11.995Z,100.00
2024-04-21T04:13:39.558Z,100.00
2024-04-21T04:16:14.273Z,100.00
2024-04-21T04:18:41.854Z,100.00
2024-04-21T04:21:11.582Z,100.00
2024-04-21T04:23:39.154Z,100.00
2024-04-21T04:26:10.826Z,100.00
2024-04-21T04:28:39.765Z,100.00
2024-04-21T04:31:14.618Z,100.00
2024-04-21T04:33:42.574Z,100.00
2024-04-21T04:36:12.393Z,100.00
2024-04-21T04:38:40.059Z,100.00
2024-04-21T04:41:10.375Z,100.00
2024-04-21T04:43:37.907Z,100.00
2024-04-21T04:46:08.075Z,100.00
2024-04-21T04:48:41.337Z,100.00
2024-04-21T04:51:08.456Z,99.80
2024-04-21T04:53:40.907Z,100.00
2024-04-21T04:56:08.699Z,100.00
2024-04-21T04:58:38.852Z,100.00
2024-04-21T05:01:06.197Z,100.00
2024-04-21T05:03:36.419Z,100.00
2024-04-21T05:06:06.225Z,100.00
2024-04-21T05:08:36.472Z,100.00
2024-04-21T05:11:03.689Z,100.00
2024-04-21T05:13:35.936Z,100.00
2024-04-21T05:16:03.212Z,100.00
2024-04-21T05:18:34.317Z,100.00
2024-04-21T05:21:01.446Z,100.00
2024-04-21T05:23:35.973Z,100.00
2024-04-21T05:26:03.408Z,100.00
2024-04-21T05:28:41.450Z,100.00
2024-04-21T05:31:15.979Z,100.00
2024-04-21T05:33:46.413Z,100.00
2024-04-21T05:36:16.222Z,100.00
2024-04-21T05:38:46.470Z,100.00
2024-04-21T05:41:16.239Z,100.00
2024-04-21T05:43:43.769Z,100.00
2024-04-21T05:46:13.558Z,100.00
2024-04-21T05:48:41.231Z,100.00
2024-04-21T05:51:10.994Z,100.00
2024-04-21T05:53:38.481Z,100.00
2024-04-21T05:56:11.010Z,100.00
2024-04-21T05:58:38.707Z,100.00
2024-04-21T06:01:08.528Z,100.00
2024-04-21T06:03:36.131Z,100.00
2024-04-21T06:06:07.960Z,100.00
2024-04-21T06:08:35.647Z,100.00
2024-04-21T06:11:05.442Z,100.00
2024-04-21T06:13:35.651Z,100.00
2024-04-21T06:16:05.666Z,100.00
2024-04-21T06:18:33.283Z,100.00
2024-04-21T06:21:03.085Z,100.00
2024-04-21T06:23:30.625Z,100.00
2024-04-21T06:26:00.403Z,100.00
2024-04-21T06:28:28.080Z,100.00
2024-04-21T06:31:00.499Z,100.00
2024-04-21T06:33:28.038Z,100.00
2024-04-21T06:35:57.815Z,100.00
2024-04-21T06:38:26.195Z,100.00
2024-04-21T06:40:55.911Z,100.00
2024-04-21T06:43:23.514Z,100.00
2024-04-21T06:45:53.281Z,100.00
2024-04-21T06:48:23.674Z,100.00
2024-04-21T06:50:55.758Z,100.00
2024-04-21T06:53:25.430Z,100.00
2024-04-21T06:55:55.695Z,100.00
2024-04-21T06:58:23.322Z,100.00
2024-04-21T07:00:54.263Z,100.00
2024-04-21T07:03:24.623Z,100.00
2024-04-21T07:05:54.424Z,100.00
2024-04-21T07:08:21.964Z,100.00
2024-04-21T07:10:51.722Z,100.00
2024-04-21T07:13:21.950Z,95.67
2024-04-21T07:15:49.122Z,97.01
2024-04-21T07:18:19.457Z,94.16
2024-04-21T07:20:49.371Z,91.13
2024-04-21T07:23:19.455Z,89.14
2024-04-21T07:25:46.610Z,89.75
2024-04-21T07:28:16.832Z,88.84
2024-04-21T07:30:43.958Z,89.75
2024-04-21T07:33:15.126Z,89.81
2024-04-21T07:35:43.876Z,91.20
2024-04-21T07:38:16.634Z,89.81
2024-04-21T07:40:43.696Z,88.69
2024-04-21T07:43:16.196Z,88.39
2024-04-21T07:45:45.509Z,86.26
2024-04-21T07:48:15.901Z,83.96
2024-04-21T07:50:44.747Z,85.31
2024-04-21T07:53:17.671Z,82.79
2024-04-21T07:55:44.794Z,82.32
2024-04-21T07:58:14.968Z,81.78
2024-04-21T08:00:42.217Z,81.07
2024-04-21T08:03:12.404Z,80.82
2024-04-21T08:05:39.598Z,80.40
2024-04-21T08:08:10.080Z,81.53
2024-04-21T08:10:47.956Z,81.06
2024-04-21T08:13:24.458Z,78.63
2024-04-21T08:15:52.241Z,79.02
2024-04-21T08:18:22.519Z,79.46
2024-04-21T08:20:51.551Z,78.51
2024-04-21T08:23:22.038Z,79.45
2024-04-21T08:25:51.919Z,78.85
2024-04-21T08:28:22.230Z,78.79
2024-04-21T08:30:49.541Z,77.87
2024-04-21T08:33:19.788Z,77.03
2024-04-21T08:35:52.086Z,76.99
2024-04-21T08:38:23.201Z,76.08
2024-04-21T08:40:53.237Z,76.12
2024-04-21T08:43:25.437Z,77.00
2024-04-21T08:45:53.561Z,75.79
2024-04-21T08:48:24.410Z,76.78
2024-04-21T08:50:51.746Z,76.84
2024-04-21T08:53:22.067Z,76.72
2024-04-21T08:55:49.902Z,74.74
2024-04-21T08:58:22.827Z,75.20
2024-04-21T09:00:50.091Z,74.30
2024-04-21T09:03:20.806Z,74.54
2024-04-21T09:05:51.554Z,73.94
2024-04-21T09:08:21.652Z,73.14
2024-04-21T09:10:49.059Z,73.10
2024-04-21T09:13:19.948Z,73.98
2024-04-21T09:15:49.660Z,72.72
2024-04-21T09:18:20.501Z,73.04
2024-04-21T09:20:47.667Z,71.65
2024-04-21T09:23:18.121Z,71.91
2024-04-21T09:25:45.225Z,71.44
2024-04-21T09:28:15.423Z,72.23
2024-04-21T09:30:42.568Z,72.13
2024-04-21T09:33:16.626Z,72.22
2024-04-21T09:35:43.909Z,71.01
2024-04-21T09:38:14.079Z,70.80
2024-04-21T09:40:42.954Z,70.37
2024-04-21T09:43:15.266Z,68.26
2024-04-21T09:45:43.051Z,69.66
2024-04-21T09:48:16.273Z,66.91
2024-04-21T09:50:44.839Z,66.12
2024-04-21T09:53:15.041Z,65.15
2024-04-21T09:55:46.935Z,63.90
2024-04-21T09:58:17.889Z,64.57
2024-04-21T10:00:46.155Z,64.95
2024-04-21T10:03:20.075Z,65.49
2024-04-21T10:05:49.899Z,65.97
2024-04-21T10:08:23.482Z,67.42
2024-04-21T10:10:53.132Z,68.97
2024-04-21T10:13:23.749Z,70.94
2024-04-21T10:15:52.131Z,72.16
2024-04-21T10:18:25.998Z,72.95
2024-04-21T10:20:56.619Z,73.29
2024-04-21T10:23:26.806Z,73.49
2024-04-21T10:25:55.232Z,73.02
2024-04-21T10:28:29.698Z,73.21
2024-04-21T10:31:06.860Z,72.40
2024-04-21T10:33:43.360Z,71.26
2024-04-21T10:36:18.993Z,71.00
2024-04-21T10:38:56.523Z,70.14
2024-04-21T10:41:23.954Z,71.06
2024-04-21T10:43:55.866Z,70.11
2024-04-21T10:46:24.058Z,68.97
2024-04-21T10:48:56.943Z,69.83
2024-04-21T10:51:24.541Z,69.96
2024-04-21T10:53:54.829Z,69.53
2024-04-21T10:56:22.020Z,68.87
2024-04-21T10:58:52.142Z,68.74
2024-04-21T11:01:20.930Z,68.99
2024-04-21T11:03:51.157Z,68.33
2024-04-21T11:06:21.057Z,68.05
2024-04-21T11:08:51.608Z,65.59
2024-04-21T11:11:19.045Z,66.26
2024-04-21T11:13:52.367Z,66.15
2024-04-21T11:16:21.210Z,66.48
2024-04-21T11:18:51.415Z,64.00
2024-04-21T11:21:21.270Z,65.24
2024-04-21T11:23:51.528Z,65.91
2024-04-21T11:26:18.714Z,67.15
2024-04-21T11:28:49.096Z,68.20
2024-04-21T11:31:16.284Z,66.48
2024-04-21T11:33:46.522Z,64.19
2024-04-21T11:36:14.284Z,63.75
2024-04-21T11:38:47.154Z,63.16
2024-04-21T11:41:14.341Z,61.57
2024-04-21T11:43:47.756Z,63.09
2024-04-21T11:46:15.574Z,61.95
2024-04-21T11:48:47.111Z,60.85
2024-04-21T11:51:15.752Z,60.21
2024-04-21T11:53:49.009Z,59.97
2024-04-21T11:56:16.322Z,60.00
2024-04-21T11:58:47.030Z,60.12
2024-04-21T12:01:19.040Z,60.68
2024-04-21T12:03:51.299Z,63.01
2024-04-21T12:06:18.446Z,65.85
2024-04-21T12:08:51.298Z,66.84
2024-04-21T12:11:18.612Z,68.72
2024-04-21T12:13:49.138Z,66.86
2024-04-21T12:16:16.349Z,68.77
2024-04-21T12:18:46.649Z,68.95
2024-04-21T12:21:13.767Z,67.76
2024-04-21T12:23:43.975Z,68.41
2024-04-21T12:26:13.690Z,68.14
2024-04-21T12:28:43.778Z,66.66
2024-04-21T12:31:11.178Z,68.04
2024-04-21T12:33:41.347Z,67.45
2024-04-21T12:36:08.438Z,68.37
2024-04-21T12:38:38.562Z,67.74
2024-04-21T12:41:08.836Z,68.94
2024-04-21T12:43:41.762Z,68.92
2024-04-21T12:46:08.944Z,67.53
2024-04-21T12:48:39.127Z,67.24
2024-04-21T12:51:06.307Z,67.27
2024-04-21T12:53:36.479Z,67.65
2024-04-21T12:56:03.733Z,67.16
2024-04-21T12:58:33.977Z,66.20
2024-04-21T13:01:04.669Z,68.22
2024-04-21T13:03:34.847Z,67.61
2024-04-21T13:06:02.072Z,66.30
2024-04-21T13:08:32.309Z,65.74
2024-04-21T13:10:59.911Z,65.60
2024-04-21T13:13:30.261Z,65.78
2024-04-21T13:15:57.725Z,65.87
2024-04-21T13:18:31.018Z,65.19
2024-04-21T13:20:58.250Z,65.44
2024-04-21T13:23:28.456Z,65.45
2024-04-21T13:25:55.708Z,64.49
2024-04-21T13:28:25.969Z,66.39
2024-04-21T13:30:54.712Z,64.54
2024-04-21T13:33:24.979Z,65.26
2024-04-21T13:35:55.408Z,65.42
2024-04-21T13:38:25.621Z,64.36
2024-04-21T13:40:57.290Z,62.84
2024-04-21T13:43:27.486Z,62.87
2024-04-21T13:45:54.605Z,63.32
2024-04-21T13:48:24.729Z,61.87
2024-04-21T13:50:55.808Z,62.26
2024-04-21T13:53:26.399Z,61.94
2024-04-21T13:55:54.622Z,62.54
2024-04-21T13:58:25.062Z,62.03
2024-04-21T14:00:52.291Z,61.36
2024-04-21T14:03:22.569Z,60.79
2024-04-21T14:05:49.744Z,60.34
2024-04-21T14:08:23.926Z,60.71
2024-04-21T14:10:51.141Z,60.13
2024-04-21T14:13:23.484Z,58.86
2024-04-21T14:15:51.523Z,59.65
2024-04-21T14:18:21.628Z,61.13
2024-04-21T14:20:48.750Z,59.65
2024-04-21T14:23:18.979Z,60.27
2024-04-21T14:25:48.682Z,58.71
2024-04-21T14:28:18.948Z,58.61
2024-04-21T14:30:46.101Z,59.12
2024-04-21T14:33:16.306Z,58.58
2024-04-21T14:35:43.404Z,59.20
2024-04-21T14:38:13.580Z,59.52
2024-04-21T14:40:40.745Z,58.54
2024-04-21T14:43:13.862Z,58.63
2024-04-21T14:45:44.589Z,60.52
2024-04-21T14:48:14.946Z,58.31
2024-04-21T14:50:42.632Z,58.79
2024-04-21T14:53:13.040Z,60.25
2024-04-21T14:55:42.549Z,61.23
2024-04-21T14:58:15.879Z,60.42
2024-04-21T15:00:42.997Z,59.08
2024-04-21T15:03:13.170Z,59.31
2024-04-21T15:05:42.947Z,59.06
2024-04-21T15:08:10.791Z,59.49
2024-04-21T15:10:40.656Z,59.87
2024-04-21T15:13:08.232Z,60.91
2024-04-21T15:15:40.693Z,62.70
2024-04-21T15:18:08.303Z,63.46
2024-04-21T15:20:38.131Z,65.06
2024-04-21T15:23:05.686Z,65.67
2024-04-21T15:25:35.656Z,66.26
2024-04-21T15:28:03.588Z,67.09
2024-04-21T15:30:33.563Z,67.31
2024-04-21T15:33:04.633Z,66.69
2024-04-21T15:35:34.889Z,66.25
2024-04-21T15:38:02.477Z,67.45
2024-04-21T15:40:32.287Z,68.03
2024-04-21T15:43:00.178Z,69.52
2024-04-21T15:45:30.563Z,78.72
2024-04-21T15:47:58.455Z,89.86
2024-04-21T15:50:30.970Z,96.22
2024-04-21T15:52:58.523Z,97.53
2024-04-21T15:55:29.644Z,98.21
2024-04-21T15:57:57.364Z,99.19
2024-04-21T16:00:27.160Z,96.39
2024-04-21T16:02:54.786Z,97.79
2024-04-21T16:05:24.700Z,94.16
2024-04-21T16:07:54.900Z,93.62
2024-04-21T16:10:25.367Z,91.64
2024-04-21T16:12:55.107Z,88.94
2024-04-21T16:15:25.359Z,86.10
2024-04-21T16:17:52.874Z,86.37
2024-04-21T16:20:22.843Z,84.35
2024-04-21T16:22:50.526Z,84.35
2024-04-21T16:25:23.523Z,82.70
2024-04-21T16:27:51.078Z,84.09
2024-04-21T16:30:21.219Z,87.16
2024-04-21T16:32:50.394Z,87.40
2024-04-21T16:35:20.579Z,87.26
2024-04-21T16:37:50.981Z,89.40
2024-04-21T16:40:21.162Z,88.79
2024-04-21T16:42:51.701Z,86.98
2024-04-21T16:45:19.221Z,87.16
2024-04-21T16:47:52.462Z,85.90
2024-04-21T16:50:20.139Z,85.32
2024-04-21T16:52:50.785Z,84.35
2024-04-21T16:55:21.108Z,83.98
2024-04-21T16:57:57.162Z,83.56
2024-04-21T17:00:24.611Z,81.09
2024-04-21T17:02:55.315Z,80.15
2024-04-21T17:05:22.879Z,79.53
2024-04-21T17:07:59.040Z,78.13
2024-04-21T17:10:29.236Z,78.08
2024-04-21T17:12:59.444Z,78.32
2024-04-21T17:15:26.736Z,77.88
2024-04-21T17:17:59.104Z,78.37
2024-04-21T17:20:26.297Z,78.49
2024-04-21T17:22:56.414Z,79.96
2024-04-21T17:25:23.599Z,82.78
2024-04-21T17:27:56.401Z,84.20
2024-04-21T17:30:28.583Z,83.55
2024-04-21T17:32:58.866Z,85.94
2024-04-21T17:35:26.517Z,88.27
2024-04-21T17:37:56.701Z,89.08
2024-04-21T17:40:24.274Z,89.03
2024-04-21T17:42:57.193Z,89.58
2024-04-21T17:45:29.930Z,91.78
2024-04-21T17:48:01.052Z,93.39
2024-04-21T17:50:28.234Z,94.19
2024-04-21T17:52:59.414Z,93.31
2024-04-21T17:55:27.866Z,95.00
2024-04-21T17:58:00.880Z,94.06
2024-04-21T18:00:28.205Z,94.51
2024-04-21T18:02:58.485Z,94.88
2024-04-21T18:05:25.892Z,96.16
2024-04-21T18:07:56.154Z,96.08
2024-04-21T18:10:23.556Z,96.67
2024-04-21T18:12:53.730Z,96.78
2024-04-21T18:15:23.530Z,96.97
2024-04-21T18:17:53.782Z,98.08
2024-04-21T18:20:20.932Z,97.03
2024-04-21T18:22:51.117Z,96.48
2024-04-21T18:25:20.041Z,96.60
2024-04-21T18:27:50.284Z,98.39
2024-04-21T18:30:17.510Z,98.85
2024-04-21T18:32:51.851Z,98.10
2024-04-21T18:35:19.015Z,97.62
2024-04-21T18:37:52.185Z,98.75
2024-04-21T18:40:19.378Z,97.95
2024-04-21T18:42:50.268Z,97.23
2024-04-21T18:45:17.604Z,97.79
2024-04-21T18:47:50.740Z,98.04
2024-04-21T18:50:18.109Z,98.89
2024-04-21T18:52:50.202Z,98.99
2024-04-21T18:55:17.424Z,99.80
2024-04-21T18:57:47.829Z,100.00
2024-04-21T19:00:15.084Z,100.00
2024-04-21T19:02:45.358Z,100.00
2024-04-21T19:05:15.243Z,100.00
2024-04-21T19:07:45.472Z,100.00
2024-04-21T19:10:12.924Z,100.00
2024-04-21T19:12:43.811Z,100.00
2024-04-21T19:15:11.480Z,100.00
2024-04-21T19:17:41.949Z,100.00
2024-04-21T19:20:12.975Z,100.00
2024-04-21T19:22:43.530Z,100.00
2024-04-21T19:25:13.404Z,100.00
2024-04-21T19:27:41.044Z,100.00
2024-04-21T19:30:11.140Z,100.00
2024-04-21T19:32:39.071Z,100.00
2024-04-21T19:35:10.578Z,100.00
2024-04-21T19:37:38.188Z,100.00
2024-04-21T19:40:11.324Z,100.00
2024-04-21T19:42:39.071Z,100.00
2024-04-21T19:45:09.058Z,100.00
2024-04-21T19:47:36.648Z,100.00
2024-04-21T19:50:07.140Z,100.00
2024-04-21T19:52:38.465Z,100.00
2024-04-21T19:55:12.071Z,100.00
2024-04-21T19:57:40.173Z,100.00
2024-04-21T20:00:12.227Z,100.00
2024-04-21T20:02:42.356Z,100.00
2024-04-21T20:05:12.203Z,100.00
2024-04-21T20:07:39.773Z,100.00
2024-04-21T20:10:13.014Z,100.00
2024-04-21T20:12:41.315Z,100.00
2024-04-21T20:15:29.799Z,100.00
2024-04-21T20:18:16.042Z,100.00
2024-04-21T20:20:46.913Z,100.00
2024-04-21T20:23:17.401Z,100.00
2024-04-21T20:25:49.891Z,100.00
2024-04-21T20:28:17.608Z,98.56
2024-04-21T20:30:47.547Z,95.43
2024-04-21T20:33:15.348Z,93.39
2024-04-21T20:35:45.462Z,92.35
2024-04-21T20:38:13.223Z,93.29
2024-04-21T20:40:43.426Z,92.46
2024-04-21T20:43:14.159Z,91.79
2024-04-21T20:45:43.988Z,91.13
2024-04-21T20:48:11.749Z,91.97
2024-04-21T20:50:41.699Z,90.03
2024-04-21T20:53:09.311Z,88.66
2024-04-21T20:55:42.775Z,89.24
2024-04-21T20:58:10.438Z,88.09
2024-04-21T21:00:43.655Z,88.05
2024-04-21T21:03:12.097Z,88.29
2024-04-21T21:05:42.297Z,88.65
2024-04-21T21:08:11.811Z,87.62
2024-04-21T21:10:41.632Z,86.43
2024-04-21T21:13:09.237Z,87.17
2024-04-21T21:15:39.121Z,87.56
2024-04-21T21:18:09.423Z,88.32
2024-04-21T21:20:39.286Z,86.84
2024-04-21T21:23:06.815Z,85.92
2024-04-21T21:25:36.609Z,85.88
2024-04-21T21:28:04.339Z,85.71
2024-04-21T21:30:37.201Z,84.58
2024-04-21T21:33:05.226Z,84.20
2024-04-21T21:35:37.693Z,84.52
2024-04-21T21:38:05.261Z,84.96
2024-04-21T21:40:36.202Z,83.99
2024-04-21T21:43:04.122Z,84.03
2024-04-21T21:45:34.026Z,83.37
2024-04-21T21:48:04.121Z,84.81
2024-04-21T21:50:34.013Z,84.79
2024-04-21T21:53:04.408Z,84.60
2024-04-21T21:55:34.262Z,83.90
2024-04-21T21:58:01.955Z,84.75
2024-04-21T22:00:31.849Z,84.89
2024-04-21T22:02:59.417Z,85.06
2024-04-21T22:05:29.236Z,84.78
2024-04-21T22:07:56.761Z,84.35
2024-04-21T22:10:29.516Z,83.47
2024-04-21T22:12:57.197Z,83.48
2024-04-21T22:15:27.083Z,84.27
2024-04-21T22:17:55.058Z,84.33
2024-04-21T22:20:24.953Z,85.36
2024-04-21T22:22:53.129Z,84.53
2024-04-21T22:25:23.067Z,85.13
2024-04-21T22:27:53.422Z,84.62
2024-04-21T22:30:23.469Z,85.77
2024-04-21T22:32:51.184Z,84.96
2024-04-21T22:35:21.064Z,83.41
2024-04-21T22:37:48.885Z,82.67
2024-04-21T22:40:18.814Z,83.57
2024-04-21T22:42:47.747Z,84.73
2024-04-21T22:45:20.408Z,83.61
2024-04-21T22:47:48.016Z,83.54
2024-04-21T22:50:18.166Z,82.15
2024-04-21T22:52:45.803Z,82.00
2024-04-21T22:55:15.743Z,83.03
2024-04-21T22:57:43.311Z,83.27
2024-04-21T23:00:13.739Z,83.25
2024-04-21T23:02:44.155Z,83.91
2024-04-21T23:05:13.917Z,84.65
2024-04-21T23:07:41.598Z,83.83
2024-04-21T23:10:11.401Z,83.39
2024-04-21T23:12:39.008Z,82.51
2024-04-21T23:15:09.282Z,82.74
2024-04-21T23:17:36.849Z,82.83
2024-04-21T23:20:09.753Z,84.12
2024-04-21T23:22:37.340Z,82.98
2024-04-21T23:25:07.908Z,82.67
2024-04-21T23:27:35.614Z,82.99
2024-04-21T23:30:05.427Z,82.37
2024-04-21T23:32:33.018Z,83.46
2024-04-21T23:35:03.002Z,82.75
2024-04-21T23:37:33.313Z,84.75
2024-04-21T23:40:03.676Z,85.64
2024-04-21T23:42:31.709Z,85.55
2024-04-21T23:45:01.471Z,86.55
2024-04-21T23:47:29.317Z,88.42
2024-04-21T23:49:59.144Z,87.01
2024-04-21T23:52:26.986Z,87.89
2024-04-21T23:54:59.490Z,88.41
2024-04-21T23:57:27.142Z,88.62
2024-04-21T23:59:56.966Z,86.66
